createdAt,value
2022-10-22T00:02:23.536Z,99.90
2022-10-22T00:04:51.060Z,99.90
2022-10-22T00:07:18.610Z,99.90
2022-10-22T00:09:45.775Z,99.90
2022-10-22T00:12:15.324Z,99.90
2022-10-22T00:14:43.212Z,99.90
2022-10-22T00:17:11.536Z,99.90
2022-10-22T00:19:39.703Z,99.90
2022-10-22T00:22:08.382Z,99.90
2022-10-22T00:24:36.542Z,99.90
2022-10-22T00:27:03.835Z,99.90
2022-10-22T00:29:31.266Z,99.90
2022-10-22T00:31:58.086Z,99.90
2022-10-22T00:34:26.857Z,99.90
2022-10-22T00:36:55.233Z,99.90
2022-10-22T00:39:24.346Z,99.90
2022-10-22T00:41:53.213Z,99.90
2022-10-22T00:44:57.476Z,99.90
2022-10-22T00:47:25.381Z,99.90
2022-10-22T00:49:53.500Z,99.90
2022-10-22T00:52:21.464Z,99.90
2022-10-22T00:54:48.823Z,99.90
2022-10-22T00:57:16.857Z,99.90
2022-10-22T00:59:43.826Z,99.90
2022-10-22T01:02:10.756Z,99.90
2022-10-22T01:04:37.550Z,99.90
2022-10-22T01:07:04.466Z,99.90
2022-10-22T01:10:03.680Z,99.90
2022-10-22T01:13:05.824Z,99.90
2022-10-22T01:15:45.593Z,99.90
2022-10-22T01:18:20.944Z,99.90
2022-10-22T01:21:18.235Z,99.90
2022-10-22T01:24:20.256Z,99.90
2022-10-22T01:26:55.514Z,99.90
2022-10-22T01:29:34.830Z,99.90
2022-10-22T01:32:07.827Z,99.90
2022-10-22T01:34:35.147Z,99.90
2022-10-22T01:37:03.511Z,99.90
2022-10-22T01:39:31.350Z,99.90
2022-10-22T01:41:58.470Z,99.90
2022-10-22T01:44:37.227Z,99.90
2022-10-22T01:47:26.093Z,99.90
2022-10-22T01:50:13.156Z,99.90
2022-10-22T01:52:58.091Z,99.90
2022-10-22T01:55:40.302Z,99.90
2022-10-22T01:58:12.971Z,99.90
2022-10-22T02:00:45.414Z,99.90
2022-10-22T02:03:23.660Z,99.90
2022-10-22T02:05:57.727Z,99.90
2022-10-22T02:08:33.788Z,99.90
2022-10-22T02:11:01.760Z,99.90
2022-10-22T02:13:36.029Z,99.90
2022-10-22T02:16:06.644Z,99.90
2022-10-22T02:18:37.535Z,99.90
2022-10-22T02:23:34.379Z,99.90
2022-10-22T02:26:23.727Z,99.90
2022-10-22T02:28:57.441Z,99.90
2022-10-22T02:31:29.016Z,99.90
2022-10-22T02:33:59.442Z,99.90
2022-10-22T02:36:26.650Z,99.90
2022-10-22T02:38:54.198Z,99.90
2022-10-22T02:41:21.075Z,99.90
2022-10-22T02:43:53.894Z,99.90
2022-10-22T02:46:21.367Z,99.90
2022-10-22T02:48:48.129Z,99.90
2022-10-22T02:51:14.972Z,99.90
2022-10-22T02:53:41.715Z,99.90
2022-10-22T02:56:08.921Z,99.90
2022-10-22T02:58:35.706Z,99.90
2022-10-22T03:01:02.613Z,99.90
2022-10-22T03:03:29.811Z,99.90
2022-10-22T03:05:56.574Z,99.90
2022-10-22T03:08:23.318Z,99.90
2022-10-22T03:10:50.009Z,99.90
2022-10-22T03:13:16.710Z,99.90
2022-10-22T03:15:43.473Z,99.90
2022-10-22T03:18:10.151Z,99.90
2022-10-22T03:20:36.912Z,99.90
2022-10-22T03:23:03.765Z,99.90
2022-10-22T03:25:34.366Z,99.90
2022-10-22T03:28:05.292Z,99.90
2022-10-22T03:30:32.249Z,99.90
2022-10-22T03:32:59.051Z,99.90
2022-10-22T03:35:25.878Z,99.90
2022-10-22T03:37:52.853Z,99.90
2022-10-22T03:40:20.435Z,99.90
2022-10-22T03:42:47.412Z,99.90
2022-10-22T03:45:14.287Z,99.90
2022-10-22T03:47:41.289Z,99.90
2022-10-22T03:50:08.939Z,99.90
2022-10-22T03:52:38.208Z,99.90
2022-10-22T03:55:06.375Z,99.90
2022-10-22T03:57:33.267Z,99.90
2022-10-22T04:00:00.008Z,99.90
2022-10-22T04:02:26.969Z,99.90
2022-10-22T04:04:53.833Z,99.90
2022-10-22T04:07:20.744Z,99.90
2022-10-22T04:09:49.036Z,99.90
2022-10-22T04:12:21.368Z,99.90
2022-10-22T04:14:48.329Z,99.90
2022-10-22T04:17:15.731Z,99.90
2022-10-22T04:19:42.476Z,99.90
2022-10-22T04:22:09.426Z,99.90
2022-10-22T04:24:36.233Z,99.90
2022-10-22T04:27:02.849Z,99.90
2022-10-22T04:29:29.604Z,99.90
2022-10-22T04:31:56.343Z,99.90
2022-10-22T04:34:23.186Z,99.90
2022-10-22T04:36:49.923Z,99.90
2022-10-22T04:39:16.745Z,99.90
2022-10-22T04:41:43.503Z,99.90
2022-10-22T04:44:13.620Z,99.90
2022-10-22T04:46:44.991Z,99.90
2022-10-22T04:49:11.698Z,99.90
2022-10-22T04:51:38.791Z,99.90
2022-10-22T04:54:05.573Z,99.90
2022-10-22T04:56:32.729Z,99.90
2022-10-22T04:59:05.426Z,99.90
2022-10-22T05:01:43.501Z,99.90
2022-10-22T05:04:16.446Z,99.90
2022-10-22T05:06:44.098Z,99.90
2022-10-22T05:09:20.371Z,99.90
2022-10-22T05:11:49.262Z,99.90
2022-10-22T05:14:22.632Z,99.90
2022-10-22T05:16:50.429Z,99.90
2022-10-22T05:19:26.274Z,99.90
2022-10-22T05:21:54.541Z,99.90
2022-10-22T05:24:21.815Z,99.90
2022-10-22T05:26:52.837Z,99.90
2022-10-22T05:29:20.471Z,99.90
2022-10-22T05:31:47.266Z,99.90
2022-10-22T05:34:14.312Z,99.90
2022-10-22T05:36:41.877Z,99.90
2022-10-22T05:39:08.744Z,99.90
2022-10-22T05:41:35.785Z,99.90
2022-10-22T05:44:02.608Z,99.90
2022-10-22T05:46:30.305Z,99.90
2022-10-22T05:48:59.375Z,99.90
2022-10-22T05:51:28.188Z,99.90
2022-10-22T05:53:57.133Z,99.90
2022-10-22T05:56:24.750Z,99.90
2022-10-22T05:58:52.097Z,99.90
2022-10-22T06:01:27.356Z,99.90
2022-10-22T06:03:56.082Z,99.90
2022-10-22T06:06:35.943Z,99.90
2022-10-22T06:09:27.140Z,99.90
2022-10-22T06:11:55.109Z,99.90
2022-10-22T06:14:22.357Z,99.90
2022-10-22T06:16:49.988Z,99.90
2022-10-22T06:19:18.876Z,99.90
2022-10-22T06:21:45.833Z,99.90
2022-10-22T06:24:13.182Z,99.90
2022-10-22T06:26:40.187Z,99.90
2022-10-22T06:29:07.365Z,99.90
2022-10-22T06:31:37.496Z,99.90
2022-10-22T06:34:05.679Z,99.90
2022-10-22T06:36:32.726Z,99.90
2022-10-22T06:38:59.471Z,99.90
2022-10-22T06:41:28.843Z,99.90
2022-10-22T06:43:57.579Z,99.90
2022-10-22T06:46:26.172Z,99.90
2022-10-22T06:48:57.536Z,99.90
2022-10-22T06:51:24.744Z,99.90
2022-10-22T06:53:51.735Z,99.90
2022-10-22T06:56:21.059Z,99.90
2022-10-22T06:58:49.416Z,99.90
2022-10-22T07:01:20.248Z,99.90
2022-10-22T07:03:49.872Z,99.90
2022-10-22T07:06:20.681Z,99.90
2022-10-22T07:09:13.269Z,99.90
2022-10-22T07:11:50.607Z,99.90
2022-10-22T07:14:20.080Z,99.90
2022-10-22T07:16:46.904Z,99.90
2022-10-22T07:19:14.038Z,99.90
2022-10-22T07:21:41.213Z,99.90
2022-10-22T07:24:08.459Z,99.90
2022-10-22T07:26:35.549Z,99.90
2022-10-22T07:29:03.120Z,99.90
2022-10-22T07:31:30.935Z,99.90
2022-10-22T07:33:58.146Z,99.90
2022-10-22T07:36:25.182Z,99.90
2022-10-22T07:38:58.717Z,99.90
2022-10-22T07:41:27.202Z,99.90
2022-10-22T07:43:54.100Z,99.90
2022-10-22T07:46:21.156Z,99.90
2022-10-22T07:48:48.484Z,99.90
2022-10-22T07:51:15.925Z,99.90
2022-10-22T07:53:42.889Z,99.90
2022-10-22T07:56:10.068Z,99.90
2022-10-22T07:58:36.928Z,99.90
2022-10-22T08:01:07.561Z,99.90
2022-10-22T08:03:34.998Z,99.90
2022-10-22T08:06:02.525Z,99.90
2022-10-22T08:08:32.303Z,99.90
2022-10-22T08:11:00.947Z,99.90
2022-10-22T08:13:30.493Z,99.90
2022-10-22T08:16:01.602Z,99.90
2022-10-22T08:18:29.172Z,99.90
2022-10-22T08:20:56.317Z,99.90
2022-10-22T08:23:26.063Z,99.90
2022-10-22T08:25:54.365Z,99.90
2022-10-22T08:28:22.185Z,99.90
2022-10-22T08:30:49.361Z,99.90
2022-10-22T08:33:16.387Z,99.90
2022-10-22T08:35:48.419Z,99.90
2022-10-22T08:38:15.262Z,99.90
2022-10-22T08:40:44.279Z,99.90
2022-10-22T08:43:52.167Z,99.90
2022-10-22T08:46:54.407Z,99.90
2022-10-22T08:49:24.967Z,99.90
2022-10-22T08:51:52.537Z,99.90
2022-10-22T08:54:45.458Z,99.90
2022-10-22T08:57:18.477Z,99.90
2022-10-22T08:59:45.192Z,99.90
2022-10-22T09:02:41.603Z,99.90
2022-10-22T09:05:23.035Z,99.90
2022-10-22T09:07:50.431Z,99.90
2022-10-22T09:10:24.584Z,99.90
2022-10-22T09:12:51.523Z,99.90
2022-10-22T09:15:20.113Z,99.90
2022-10-22T09:17:52.812Z,99.90
2022-10-22T09:20:48.168Z,99.90
2022-10-22T09:23:32.705Z,99.90
2022-10-22T09:26:00.472Z,99.90
2022-10-22T09:28:27.173Z,99.90
2022-10-22T09:30:54.221Z,99.90
2022-10-22T09:33:25.881Z,99.90
2022-10-22T09:36:07.594Z,99.90
2022-10-22T09:38:40.852Z,99.90
2022-10-22T09:41:09.135Z,99.90
2022-10-22T09:43:36.242Z,99.90
2022-10-22T09:46:06.078Z,99.90
2022-10-22T09:49:04.447Z,99.90
2022-10-22T09:51:51.081Z,99.90
2022-10-22T09:54:19.644Z,99.90
2022-10-22T09:57:04.309Z,99.90
2022-10-22T09:59:33.870Z,99.90
2022-10-22T10:02:20.024Z,99.90
2022-10-22T10:04:57.410Z,99.90
2022-10-22T10:07:27.285Z,99.90
2022-10-22T10:09:54.848Z,99.90
2022-10-22T10:12:54.485Z,99.40
2022-10-22T10:15:36.575Z,98.50
2022-10-22T10:18:37.160Z,97.40
2022-10-22T10:21:23.374Z,96.60
2022-10-22T10:24:37.768Z,97.20
2022-10-22T10:27:22.515Z,97.30
2022-10-22T10:29:58.784Z,98.40
2022-10-22T10:32:31.392Z,97.30
2022-10-22T10:35:03.827Z,95.80
2022-10-22T10:37:50.226Z,96.90
2022-10-22T10:40:44.457Z,98.30
2022-10-22T10:43:17.961Z,98.80
2022-10-22T10:46:08.018Z,99.90
2022-10-22T10:48:44.782Z,99.90
2022-10-22T10:51:34.211Z,98.80
2022-10-22T10:54:21.824Z,96.60
2022-10-22T10:57:12.332Z,97.30
2022-10-22T10:59:59.691Z,99.90
2022-10-22T11:02:29.370Z,99.90
2022-10-22T11:05:34.249Z,99.90
2022-10-22T11:08:09.979Z,99.90
2022-10-22T11:10:39.745Z,99.90
2022-10-22T11:13:34.110Z,99.90
2022-10-22T11:16:07.291Z,99.90
2022-10-22T11:19:06.958Z,99.90
2022-10-22T11:21:40.482Z,99.90
2022-10-22T11:24:22.831Z,99.90
2022-10-22T11:26:54.731Z,99.90
2022-10-22T11:29:30.718Z,99.90
2022-10-22T11:32:00.013Z,99.90
2022-10-22T11:34:50.807Z,99.90
2022-10-22T11:37:18.597Z,99.50
2022-10-22T11:39:57.481Z,98.70
2022-10-22T11:42:38.176Z,97.20
2022-10-22T11:45:07.465Z,98.20
2022-10-22T11:47:35.743Z,98.60
2022-10-22T11:50:22.684Z,98.70
2022-10-22T11:53:12.477Z,99.40
2022-10-22T11:55:45.893Z,99.90
2022-10-22T11:58:33.251Z,99.90
2022-10-22T12:01:03.151Z,99.90
2022-10-22T12:03:32.923Z,99.70
2022-10-22T12:06:19.695Z,97.90
2022-10-22T12:08:49.271Z,97.50
2022-10-22T12:11:25.715Z,96.10
2022-10-22T12:14:01.371Z,94.10
2022-10-22T12:16:55.319Z,92.60
2022-10-22T12:19:22.566Z,90.60
2022-10-22T12:22:08.912Z,91.00
2022-10-22T12:24:40.520Z,90.40
2022-10-22T12:27:37.897Z,89.30
2022-10-22T12:30:23.692Z,88.00
2022-10-22T12:32:56.800Z,86.90
2022-10-22T12:35:29.715Z,87.60
2022-10-22T12:38:00.356Z,86.50
2022-10-22T12:40:41.482Z,87.50
2022-10-22T12:43:15.753Z,86.80
2022-10-22T12:45:47.890Z,87.30
2022-10-22T12:48:18.863Z,85.10
2022-10-22T12:50:50.644Z,83.80
2022-10-22T12:53:21.122Z,83.10
2022-10-22T12:55:50.758Z,82.90
2022-10-22T12:58:21.311Z,82.20
2022-10-22T13:00:49.075Z,83.20
2022-10-22T13:03:39.673Z,82.10
2022-10-22T13:06:18.932Z,82.30
2022-10-22T13:09:12.328Z,83.70
2022-10-22T13:11:58.266Z,86.30
2022-10-22T13:14:25.170Z,85.70
2022-10-22T13:17:12.867Z,86.90
2022-10-22T13:19:47.333Z,88.60
2022-10-22T13:22:38.637Z,90.30
2022-10-22T13:25:14.638Z,91.70
2022-10-22T13:27:53.332Z,93.00
2022-10-22T13:30:22.212Z,94.20
2022-10-22T13:32:55.641Z,95.40
2022-10-22T13:35:26.315Z,95.00
2022-10-22T13:37:53.210Z,94.60
2022-10-22T13:40:20.872Z,94.70
2022-10-22T13:42:47.757Z,93.50
2022-10-22T13:45:15.723Z,92.40
2022-10-22T13:47:45.025Z,90.90
2022-10-22T13:50:15.151Z,90.00
2022-10-22T13:52:45.758Z,86.70
2022-10-22T13:55:20.417Z,86.70
2022-10-22T13:57:47.696Z,90.10
2022-10-22T14:00:17.796Z,91.10
2022-10-22T14:02:46.848Z,91.90
2022-10-22T14:05:14.815Z,92.70
2022-10-22T14:07:41.824Z,93.50
2022-10-22T14:10:23.939Z,93.90
2022-10-22T14:12:53.585Z,93.00
2022-10-22T14:15:27.062Z,93.20
2022-10-22T14:17:56.868Z,94.30
2022-10-22T14:20:26.706Z,95.60
2022-10-22T14:22:54.222Z,97.20
2022-10-22T14:25:23.956Z,98.80
2022-10-22T14:27:50.852Z,99.90
2022-10-22T14:30:22.907Z,99.90
2022-10-22T14:32:49.889Z,99.90
2022-10-22T14:35:19.801Z,99.90
2022-10-22T14:37:46.919Z,99.90
2022-10-22T14:40:16.381Z,99.90
2022-10-22T14:42:46.049Z,99.90
2022-10-22T14:45:21.043Z,99.90
2022-10-22T14:47:48.951Z,99.90
2022-10-22T14:50:16.391Z,99.90
2022-10-22T14:52:43.751Z,99.90
2022-10-22T14:55:13.041Z,99.90
2022-10-22T14:57:40.154Z,99.90
2022-10-22T15:00:11.521Z,99.90
2022-10-22T15:02:38.330Z,99.90
2022-10-22T15:05:09.845Z,99.90
2022-10-22T15:07:36.794Z,99.90
2022-10-22T15:10:04.942Z,99.90
2022-10-22T15:12:32.118Z,99.90
2022-10-22T15:14:58.906Z,99.90
2022-10-22T15:17:25.651Z,99.90
2022-10-22T15:19:53.139Z,99.90
2022-10-22T15:22:20.591Z,99.90
2022-10-22T15:24:48.595Z,99.90
2022-10-22T15:27:15.420Z,99.90
2022-10-22T15:29:42.808Z,99.90
2022-10-22T15:32:12.886Z,99.90
2022-10-22T15:34:40.272Z,99.90
2022-10-22T15:37:13.422Z,99.90
2022-10-22T15:39:41.357Z,99.90
2022-10-22T15:42:09.516Z,99.90
2022-10-22T15:44:36.795Z,99.90
2022-10-22T15:47:04.381Z,99.90
2022-10-22T15:49:31.224Z,99.90
2022-10-22T15:51:57.978Z,99.90
2022-10-22T15:54:25.982Z,99.90
2022-10-22T15:56:52.844Z,99.90
2022-10-22T15:59:19.423Z,99.90
2022-10-22T16:01:46.787Z,99.90
2022-10-22T16:04:13.772Z,99.90
2022-10-22T16:06:52.742Z,99.90
2022-10-22T16:09:24.972Z,99.90
2022-10-22T16:14:22.037Z,99.90
2022-10-22T16:16:51.555Z,99.90
2022-10-22T16:19:20.724Z,99.90
2022-10-22T16:21:50.811Z,99.90
2022-10-22T16:24:17.673Z,99.90
2022-10-22T16:26:44.407Z,99.90
2022-10-22T16:29:12.597Z,99.90
2022-10-22T16:31:41.198Z,99.90
2022-10-22T16:34:07.990Z,99.90
2022-10-22T16:36:36.266Z,99.90
2022-10-22T16:39:04.109Z,99.90
2022-10-22T16:41:35.217Z,99.90
2022-10-22T16:44:07.880Z,99.90
2022-10-22T16:46:38.210Z,99.90
2022-10-22T16:49:06.562Z,99.90
2022-10-22T16:51:34.029Z,99.90
2022-10-22T16:54:00.759Z,99.90
2022-10-22T16:56:27.441Z,99.90
2022-10-22T16:58:56.620Z,99.90
2022-10-22T17:01:29.150Z,99.90
2022-10-22T17:03:59.118Z,99.90
2022-10-22T17:06:26.550Z,99.90
2022-10-22T17:08:53.593Z,99.90
2022-10-22T17:11:22.760Z,99.90
2022-10-22T17:13:52.602Z,99.90
2022-10-22T17:16:21.519Z,99.90
2022-10-22T17:18:48.830Z,99.90
2022-10-22T17:21:17.432Z,99.90
2022-10-22T17:23:44.578Z,99.90
2022-10-22T17:26:18.334Z,99.90
2022-10-22T17:28:45.407Z,99.90
2022-10-22T17:31:19.615Z,99.90
2022-10-22T17:33:47.139Z,99.90
2022-10-22T17:36:14.564Z,99.90
2022-10-22T17:38:42.561Z,99.90
2022-10-22T17:41:14.603Z,99.90
2022-10-22T17:43:41.714Z,99.90
2022-10-22T17:46:18.953Z,99.90
2022-10-22T17:48:52.120Z,99.90
2022-10-22T17:51:19.900Z,99.90
2022-10-22T17:53:47.263Z,99.90
2022-10-22T17:56:17.195Z,99.90
2022-10-22T17:58:43.900Z,99.90
2022-10-22T18:01:20.816Z,99.90
2022-10-22T18:03:48.248Z,99.90
2022-10-22T18:06:15.420Z,99.90
2022-10-22T18:08:42.362Z,99.90
2022-10-22T18:11:15.997Z,99.90
2022-10-22T18:13:42.796Z,99.90
2022-10-22T18:16:09.629Z,99.90
2022-10-22T18:18:36.458Z,99.90
2022-10-22T18:21:03.788Z,99.90
2022-10-22T18:23:30.525Z,99.90
2022-10-22T18:25:57.265Z,99.90
2022-10-22T18:28:24.034Z,99.90
2022-10-22T18:30:50.892Z,99.90
2022-10-22T18:33:19.417Z,99.90
2022-10-22T18:35:46.787Z,99.90
2022-10-22T18:38:13.868Z,99.90
2022-10-22T18:40:47.553Z,99.90
2022-10-22T18:43:15.069Z,99.90
2022-10-22T18:45:47.014Z,99.90
2022-10-22T18:48:16.349Z,99.90
2022-10-22T18:50:44.469Z,99.90
2022-10-22T18:53:13.909Z,99.90
2022-10-22T18:55:41.087Z,99.90
2022-10-22T18:58:08.004Z,99.90
2022-10-22T19:00:35.186Z,99.90
2022-10-22T19:03:03.294Z,99.90
2022-10-22T19:05:30.535Z,99.90
2022-10-22T19:07:57.479Z,99.90
2022-10-22T19:10:24.145Z,99.90
2022-10-22T19:12:50.953Z,99.90
2022-10-22T19:15:17.782Z,99.90
2022-10-22T19:17:44.742Z,99.90
2022-10-22T19:20:11.738Z,99.90
2022-10-22T19:22:38.404Z,99.90
2022-10-22T19:25:07.172Z,99.90
2022-10-22T19:27:36.524Z,99.90
2022-10-22T19:30:06.508Z,99.90
2022-10-22T19:32:33.319Z,99.90
2022-10-22T19:35:00.201Z,99.90
2022-10-22T19:37:26.990Z,99.90
2022-10-22T19:39:53.726Z,99.90
2022-10-22T19:42:20.828Z,99.90
2022-10-22T19:44:47.730Z,99.90
2022-10-22T19:47:16.048Z,99.90
2022-10-22T19:49:42.891Z,99.90
2022-10-22T19:52:09.633Z,99.90
2022-10-22T19:54:40.652Z,99.90
2022-10-22T19:57:08.305Z,99.90
2022-10-22T19:59:35.032Z,99.90
2022-10-22T20:02:01.785Z,99.90
2022-10-22T20:04:28.550Z,99.90
2022-10-22T20:06:55.545Z,99.90
2022-10-22T20:09:22.244Z,99.90
2022-10-22T20:11:49.039Z,99.90
2022-10-22T20:14:15.778Z,99.90
2022-10-22T20:16:43.007Z,99.90
2022-10-22T20:19:11.016Z,99.90
2022-10-22T20:21:37.998Z,99.90
2022-10-22T20:24:04.686Z,99.90
2022-10-22T20:26:31.665Z,99.90
2022-10-22T20:28:59.068Z,99.90
2022-10-22T20:31:29.216Z,99.90
2022-10-22T20:34:01.126Z,99.90
2022-10-22T20:36:29.564Z,99.90
2022-10-22T20:39:06.230Z,99.90
2022-10-22T20:41:34.332Z,99.90
2022-10-22T20:44:01.315Z,99.90
2022-10-22T20:46:29.387Z,99.90
2022-10-22T20:48:59.830Z,99.90
2022-10-22T20:51:26.827Z,99.90
2022-10-22T20:53:53.620Z,99.90
2022-10-22T20:56:20.702Z,99.90
2022-10-22T20:58:48.848Z,99.90
2022-10-22T21:01:21.840Z,99.90
2022-10-22T21:03:50.798Z,99.90
2022-10-22T21:06:20.924Z,99.90
2022-10-22T21:08:47.769Z,99.90
2022-10-22T21:11:14.736Z,99.90
2022-10-22T21:13:41.475Z,99.90
2022-10-22T21:16:13.061Z,99.90
2022-10-22T21:18:40.239Z,99.90
2022-10-22T21:21:08.119Z,99.90
2022-10-22T21:23:36.356Z,99.90
2022-10-22T21:26:03.809Z,99.90
2022-10-22T21:28:34.966Z,99.90
2022-10-22T21:31:06.662Z,99.90
2022-10-22T21:33:40.159Z,99.90
2022-10-22T21:36:08.963Z,99.90
2022-10-22T21:38:36.788Z,99.90
2022-10-22T21:41:08.943Z,99.90
2022-10-22T21:43:41.088Z,99.90
2022-10-22T21:46:23.054Z,99.90
2022-10-22T21:48:58.576Z,99.90
2022-10-22T21:51:25.811Z,99.90
2022-10-22T21:53:53.466Z,99.90
2022-10-22T21:56:29.112Z,99.90
2022-10-22T22:01:44.407Z,99.90
2022-10-22T22:04:14.924Z,99.90
2022-10-22T22:06:43.224Z,99.90
2022-10-22T22:09:14.578Z,99.90
2022-10-22T22:11:44.162Z,99.90
2022-10-22T22:14:16.166Z,99.90
2022-10-22T22:16:44.221Z,99.90
2022-10-22T22:19:13.020Z,99.90
2022-10-22T22:21:45.208Z,99.90
2022-10-22T22:24:13.335Z,99.90
2022-10-22T22:26:41.348Z,99.90
2022-10-22T22:29:08.595Z,99.90
2022-10-22T22:31:35.788Z,99.90
2022-10-22T22:34:05.873Z,99.90
2022-10-22T22:36:45.659Z,99.90
2022-10-22T22:39:15.067Z,99.90
2022-10-22T22:41:42.864Z,99.90
2022-10-22T22:44:13.257Z,99.90
2022-10-22T22:46:40.478Z,99.90
2022-10-22T22:49:08.111Z,99.90
2022-10-22T22:51:35.966Z,99.90
2022-10-22T22:54:03.965Z,99.90
2022-10-22T22:56:34.707Z,99.90
2022-10-22T22:59:02.174Z,99.90
2022-10-22T23:01:34.951Z,99.90
2022-10-22T23:04:16.364Z,99.90
2022-10-22T23:06:43.774Z,99.90
2022-10-22T23:09:14.034Z,99.90
2022-10-22T23:11:45.406Z,99.90
2022-10-22T23:14:15.401Z,99.90
2022-10-22T23:16:48.538Z,99.90
2022-10-22T23:19:18.939Z,99.90
2022-10-22T23:21:49.357Z,99.90
2022-10-22T23:24:20.742Z,99.90
2022-10-22T23:26:50.466Z,99.90
2022-10-22T23:29:29.903Z,99.90
2022-10-22T23:32:09.326Z,99.90
2022-10-22T23:34:37.550Z,99.90
2022-10-22T23:37:07.317Z,99.90
2022-10-22T23:39:34.762Z,99.90
2022-10-22T23:42:02.013Z,99.90
2022-10-22T23:44:29.309Z,99.90
2022-10-22T23:46:56.500Z,99.90
2022-10-22T23:49:23.973Z,99.90
2022-10-22T23:51:52.754Z,99.90
2022-10-22T23:54:19.942Z,99.90
2022-10-22T23:56:47.689Z,99.90
